createdAt,value
2022-10-21T00:01:28.340Z,97802.81
2022-10-21T00:03:57.711Z,97803.84
2022-10-21T00:06:27.987Z,97806.47
2022-10-21T00:08:57.199Z,97809.53
2022-10-21T00:11:25.733Z,97810.56
2022-10-21T00:13:54.218Z,97815.00
2022-10-21T00:16:23.849Z,97808.94
2022-10-21T00:18:52.353Z,97808.56
2022-10-21T00:21:24.109Z,97799.88
2022-10-21T00:23:54.815Z,97794.59
2022-10-21T00:26:23.367Z,97794.84
2022-10-21T00:28:57.759Z,97800.28
2022-10-21T00:31:27.759Z,97787.16
2022-10-21T00:33:56.950Z,97787.16
2022-10-21T00:36:25.416Z,97791.41
2022-10-21T00:38:55.320Z,97785.91
2022-10-21T00:41:23.880Z,97781.47
2022-10-21T00:44:03.741Z,97774.63
2022-10-21T00:46:41.425Z,97771.97
2022-10-21T00:49:19.183Z,97775.63
2022-10-21T00:51:55.154Z,97771.38
2022-10-21T00:54:27.531Z,97760.84
2022-10-21T00:56:58.151Z,97751.34
2022-10-21T00:59:33.114Z,97744.28
2022-10-21T01:02:02.569Z,97725.66
2022-10-21T01:04:31.893Z,97737.19
2022-10-21T01:07:03.244Z,97731.81
2022-10-21T01:09:33.610Z,97734.19
2022-10-21T01:12:06.230Z,97741.88
2022-10-21T01:14:57.397Z,97726.09
2022-10-21T01:17:45.618Z,97720.84
2022-10-21T01:20:57.402Z,97718.78
2022-10-21T01:24:16.867Z,97727.69
2022-10-21T01:27:14.914Z,97742.44
2022-10-21T01:30:17.026Z,97745.31
2022-10-21T01:33:06.482Z,97739.81
2022-10-21T01:35:45.993Z,97730.13
2022-10-21T01:38:26.848Z,97736.63
2022-10-21T01:41:03.470Z,97735.00
2022-10-21T01:43:42.596Z,97721.06
2022-10-21T01:46:17.109Z,97717.63
2022-10-21T01:48:57.795Z,97710.78
2022-10-21T01:51:29.635Z,97706.28
2022-10-21T01:54:06.671Z,97712.78
2022-10-21T01:56:36.214Z,97709.59
2022-10-21T01:59:07.697Z,97721.91
2022-10-21T02:01:40.689Z,97722.13
2022-10-21T02:04:16.555Z,97715.28
2022-10-21T02:06:45.502Z,97713.66
2022-10-21T02:09:14.191Z,97711.47
2022-10-21T02:11:48.327Z,97710.88
2022-10-21T02:14:24.671Z,97713.56
2022-10-21T02:16:56.037Z,97708.91
2022-10-21T02:19:27.318Z,97700.66
2022-10-21T02:22:03.057Z,97701.06
2022-10-21T02:24:40.214Z,97697.03
2022-10-21T02:27:09.837Z,97694.03
2022-10-21T02:29:43.522Z,97692.88
2022-10-21T02:32:27.914Z,97683.81
2022-10-21T02:35:18.656Z,97673.50
2022-10-21T02:38:00.950Z,97665.25
2022-10-21T02:40:38.650Z,97666.25
2022-10-21T02:43:13.041Z,97656.19
2022-10-21T02:45:42.336Z,97648.97
2022-10-21T02:48:10.869Z,97648.16
2022-10-21T02:50:40.884Z,97633.22
2022-10-21T02:53:12.294Z,97630.22
2022-10-21T02:55:41.327Z,97629.41
2022-10-21T02:58:09.903Z,97616.47
2022-10-21T03:00:39.791Z,97614.28
2022-10-21T03:03:08.215Z,97615.09
2022-10-21T03:05:37.208Z,97616.09
2022-10-21T03:08:07.932Z,97610.03
2022-10-21T03:10:36.940Z,97615.28
2022-10-21T03:13:06.072Z,97613.09
2022-10-21T03:15:35.017Z,97607.03
2022-10-21T03:18:03.480Z,97611.50
2022-10-21T03:20:32.993Z,97623.03
2022-10-21T03:23:01.992Z,97625.63
2022-10-21T03:25:35.523Z,97620.81
2022-10-21T03:28:07.128Z,97627.88
2022-10-21T03:30:37.214Z,97624.88
2022-10-21T03:33:06.183Z,97625.47
2022-10-21T03:35:36.064Z,97606.28
2022-10-21T03:38:04.671Z,97611.75
2022-10-21T03:40:35.638Z,97610.75
2022-10-21T03:43:04.828Z,97613.38
2022-10-21T03:45:35.058Z,97602.66
2022-10-21T03:48:04.145Z,97605.50
2022-10-21T03:50:33.097Z,97614.97
2022-10-21T03:53:09.897Z,97611.53
2022-10-21T03:55:43.969Z,97613.16
2022-10-21T03:58:13.541Z,97618.63
2022-10-21T04:00:42.908Z,97613.38
2022-10-21T04:03:12.217Z,97613.38
2022-10-21T04:05:41.017Z,97612.34
2022-10-21T04:08:09.498Z,97606.06
2022-10-21T04:10:39.138Z,97613.94
2022-10-21T04:13:09.218Z,97603.88
2022-10-21T04:15:38.499Z,97596.00
2022-10-21T04:18:09.153Z,97600.66
2022-10-21T04:20:39.548Z,97591.38
2022-10-21T04:23:08.306Z,97592.19
2022-10-21T04:25:37.131Z,97597.44
2022-10-21T04:28:06.156Z,97593.44
2022-10-21T04:30:37.406Z,97592.63
2022-10-21T04:33:06.593Z,97591.00
2022-10-21T04:35:37.120Z,97593.44
2022-10-21T04:38:05.948Z,97589.00
2022-10-21T04:40:35.059Z,97586.38
2022-10-21T04:43:05.258Z,97581.53
2022-10-21T04:45:39.600Z,97586.19
2022-10-21T04:48:11.133Z,97584.59
2022-10-21T04:50:41.058Z,97584.59
2022-10-21T04:53:10.023Z,97589.00
2022-10-21T04:55:41.532Z,97574.06
2022-10-21T04:58:10.527Z,97577.31
2022-10-21T05:00:41.284Z,97572.06
2022-10-21T05:03:11.631Z,97574.44
2022-10-21T05:05:40.815Z,97564.19
2022-10-21T05:08:11.659Z,97571.03
2022-10-21T05:10:42.217Z,97568.00
2022-10-21T05:13:12.157Z,97562.75
2022-10-21T05:15:42.507Z,97550.63
2022-10-21T05:18:11.597Z,97545.38
2022-10-21T05:20:40.236Z,97550.38
2022-10-21T05:23:09.600Z,97554.06
2022-10-21T05:25:39.327Z,97551.44
2022-10-21T05:28:07.929Z,97547.75
2022-10-21T05:30:36.695Z,97541.50
2022-10-21T05:33:08.209Z,97541.31
2022-10-21T05:35:38.565Z,97550.75
2022-10-21T05:38:08.358Z,97549.75
2022-10-21T05:40:37.553Z,97544.50
2022-10-21T05:43:06.360Z,97534.00
2022-10-21T05:45:36.187Z,97531.19
2022-10-21T05:48:08.118Z,97539.25
2022-10-21T05:50:37.242Z,97535.38
2022-10-21T05:53:06.805Z,97547.38
2022-10-21T05:55:35.832Z,97542.88
2022-10-21T05:58:04.406Z,97534.81
2022-10-21T06:00:33.628Z,97544.88
2022-10-21T06:03:03.211Z,97548.31
2022-10-21T06:05:35.667Z,97553.34
2022-10-21T06:08:04.426Z,97537.38
2022-10-21T06:10:33.400Z,97541.63
2022-10-21T06:13:02.822Z,97539.56
2022-10-21T06:15:32.384Z,97531.47
2022-10-21T06:18:01.569Z,97547.25
2022-10-21T06:20:31.532Z,97549.63
2022-10-21T06:23:03.214Z,97546.44
2022-10-21T06:25:32.738Z,97535.94
2022-10-21T06:28:02.458Z,97548.63
2022-10-21T06:30:31.530Z,97549.63
2022-10-21T06:33:00.210Z,97556.28
2022-10-21T06:35:29.393Z,97552.63
2022-10-21T06:37:58.214Z,97561.91
2022-10-21T06:40:30.261Z,97569.78
2022-10-21T06:42:59.440Z,97571.19
2022-10-21T06:45:28.302Z,97575.19
2022-10-21T06:47:57.798Z,97573.38
2022-10-21T06:50:27.757Z,97582.63
2022-10-21T06:52:56.615Z,97589.69
2022-10-21T06:55:25.311Z,97589.50
2022-10-21T06:57:55.972Z,97598.75
2022-10-21T07:00:25.183Z,97599.38
2022-10-21T07:02:53.996Z,97597.56
2022-10-21T07:05:22.858Z,97599.75
2022-10-21T07:07:52.497Z,97599.50
2022-10-21T07:10:21.747Z,97600.09
2022-10-21T07:12:50.694Z,97602.50
2022-10-21T07:15:21.112Z,97601.25
2022-10-21T07:17:50.949Z,97602.66
2022-10-21T07:20:19.480Z,97607.50
2022-10-21T07:22:48.162Z,97606.03
2022-10-21T07:25:17.379Z,97615.09
2022-10-21T07:27:48.281Z,97610.41
2022-10-21T07:30:18.241Z,97607.94
2022-10-21T07:32:48.669Z,97611.72
2022-10-21T07:35:17.853Z,97610.06
2022-10-21T07:37:47.236Z,97615.25
2022-10-21T07:40:15.890Z,97617.59
2022-10-21T07:42:44.476Z,97618.72
2022-10-21T07:45:13.667Z,97615.66
2022-10-21T07:47:42.406Z,97606.09
2022-10-21T07:50:14.698Z,97612.75
2022-10-21T07:52:54.686Z,97610.28
2022-10-21T07:55:32.769Z,97620.34
2022-10-21T07:58:03.518Z,97615.69
2022-10-21T08:00:33.276Z,97611.22
2022-10-21T08:03:02.838Z,97620.50
2022-10-21T08:05:33.005Z,97615.84
2022-10-21T08:08:02.817Z,97626.94
2022-10-21T08:10:31.614Z,97626.47
2022-10-21T08:13:00.422Z,97633.94
2022-10-21T08:15:29.273Z,97630.06
2022-10-21T08:17:58.506Z,97632.47
2022-10-21T08:20:27.519Z,97640.16
2022-10-21T08:22:58.805Z,97635.69
2022-10-21T08:25:30.226Z,97637.88
2022-10-21T08:27:59.022Z,97638.44
2022-10-21T08:30:30.129Z,97639.25
2022-10-21T08:32:59.475Z,97634.81
2022-10-21T08:35:28.236Z,97638.00
2022-10-21T08:37:58.637Z,97641.44
2022-10-21T08:40:30.701Z,97644.44
2022-10-21T08:43:10.130Z,97639.16
2022-10-21T08:45:46.407Z,97650.28
2022-10-21T08:48:26.822Z,97649.25
2022-10-21T08:51:00.496Z,97654.06
2022-10-21T08:53:40.911Z,97654.31
2022-10-21T08:56:19.829Z,97649.84
2022-10-21T08:58:54.184Z,97654.66
2022-10-21T09:01:36.397Z,97655.22
2022-10-21T09:04:17.275Z,97659.47
2022-10-21T09:06:59.479Z,97662.09
2022-10-21T09:09:42.966Z,97666.34
2022-10-21T09:12:26.351Z,97668.75
2022-10-21T09:15:24.570Z,97678.06
2022-10-21T09:18:21.435Z,97679.63
2022-10-21T09:21:03.332Z,97683.06
2022-10-21T09:23:54.116Z,97677.59
2022-10-21T09:26:42.864Z,97680.81
2022-10-21T09:29:33.339Z,97677.97
2022-10-21T09:32:16.182Z,97680.34
2022-10-21T09:34:56.845Z,97685.41
2022-10-21T09:37:37.046Z,97689.41
2022-10-21T09:40:18.614Z,97684.97
2022-10-21T09:42:55.733Z,97687.38
2022-10-21T09:45:34.350Z,97680.84
2022-10-21T09:48:08.309Z,97678.22
2022-10-21T09:50:39.207Z,97663.78
2022-10-21T09:53:20.377Z,97676.75
2022-10-21T09:56:01.318Z,97657.63
2022-10-21T09:58:50.048Z,97647.09
2022-10-21T10:01:23.441Z,97644.81
2022-10-21T10:03:54.736Z,97636.91
2022-10-21T10:06:36.731Z,97636.69
2022-10-21T10:09:16.892Z,97628.78
2022-10-21T10:11:56.329Z,97629.59
2022-10-21T10:14:34.874Z,97642.53
2022-10-21T10:17:34.218Z,97645.75
2022-10-21T10:20:17.589Z,97639.44
2022-10-21T10:22:48.840Z,97661.91
2022-10-21T10:25:24.414Z,97666.94
2022-10-21T10:27:55.724Z,97671.19
2022-10-21T10:30:31.958Z,97670.72
2022-10-21T10:33:12.362Z,97673.72
2022-10-21T10:35:48.927Z,97680.38
2022-10-21T10:38:26.791Z,97676.03
2022-10-21T10:40:57.839Z,97677.41
2022-10-21T10:43:34.289Z,97687.28
2022-10-21T10:46:10.344Z,97695.31
2022-10-21T10:48:44.628Z,97693.84
2022-10-21T10:51:28.890Z,97690.88
2022-10-21T10:54:16.648Z,97687.56
2022-10-21T10:56:53.168Z,97683.78
2022-10-21T10:59:38.615Z,97682.84
2022-10-21T11:02:30.085Z,97680.69
2022-10-21T11:05:24.738Z,97675.66
2022-10-21T11:07:56.435Z,97687.13
2022-10-21T11:10:35.645Z,97685.94
2022-10-21T11:13:11.191Z,97692.72
2022-10-21T11:16:11.551Z,97696.28
2022-10-21T11:18:49.959Z,97685.72
2022-10-21T11:21:43.853Z,97687.66
2022-10-21T11:24:41.255Z,97680.78
2022-10-21T11:27:22.273Z,97693.53
2022-10-21T11:30:03.747Z,97685.13
2022-10-21T11:32:54.726Z,97687.31
2022-10-21T11:35:43.462Z,97683.88
2022-10-21T11:38:39.890Z,97681.34
2022-10-21T11:41:27.953Z,97693.00
2022-10-21T11:44:16.420Z,97682.00
2022-10-21T11:47:02.884Z,97675.78
2022-10-21T11:49:50.031Z,97672.34
2022-10-21T11:52:39.396Z,97666.41
2022-10-21T11:55:32.650Z,97662.97
2022-10-21T11:58:15.559Z,97666.41
2022-10-21T12:00:59.264Z,97662.56
2022-10-21T12:03:54.600Z,97661.34
2022-10-21T12:06:35.536Z,97641.59
2022-10-21T12:09:14.907Z,97636.50
2022-10-21T12:11:50.637Z,97632.13
2022-10-21T12:14:31.299Z,97636.72
2022-10-21T12:17:07.057Z,97629.88
2022-10-21T12:19:37.589Z,97639.44
2022-10-21T12:22:06.598Z,97648.22
2022-10-21T12:24:53.568Z,97644.88
2022-10-21T12:27:33.579Z,97643.94
2022-10-21T12:30:13.981Z,97637.06
2022-10-21T12:32:55.614Z,97643.47
2022-10-21T12:35:47.399Z,97642.53
2022-10-21T12:38:40.607Z,97637.09
2022-10-21T12:41:35.578Z,97643.81
2022-10-21T12:44:17.797Z,97644.69
2022-10-21T12:46:50.097Z,97637.91
2022-10-21T12:49:27.281Z,97635.03
2022-10-21T12:52:10.360Z,97623.97
2022-10-21T12:54:54.210Z,97624.44
2022-10-21T12:57:33.211Z,97609.84
2022-10-21T13:01:00.321Z,97626.84
2022-10-21T13:03:57.141Z,97627.72
2022-10-21T13:06:53.427Z,97629.00
2022-10-21T13:09:43.357Z,97626.28
2022-10-21T13:12:31.476Z,97629.25
2022-10-21T13:15:03.073Z,97625.06
2022-10-21T13:17:50.917Z,97621.97
2022-10-21T13:20:49.425Z,97619.97
2022-10-21T13:23:41.752Z,97617.88
2022-10-21T13:26:31.262Z,97614.19
2022-10-21T13:29:16.608Z,97625.25
2022-10-21T13:31:45.555Z,97624.75
2022-10-21T13:34:30.232Z,97626.38
2022-10-21T13:36:59.705Z,97624.75
2022-10-21T13:39:34.736Z,97616.38
2022-10-21T13:42:16.742Z,97606.03
2022-10-21T13:44:58.476Z,97602.88
2022-10-21T13:47:31.336Z,97604.28
2022-10-21T13:50:15.498Z,97607.94
2022-10-21T13:52:45.640Z,97611.16
2022-10-21T13:55:22.186Z,97621.97
2022-10-21T13:57:53.498Z,97626.38
2022-10-21T14:00:27.914Z,97615.34
2022-10-21T14:03:03.264Z,97605.53
2022-10-21T14:05:40.042Z,97606.34
2022-10-21T14:08:23.319Z,97596.56
2022-10-21T14:10:53.354Z,97598.66
2022-10-21T14:13:30.158Z,97601.53
2022-10-21T14:16:01.871Z,97603.16
2022-10-21T14:18:37.209Z,97606.84
2022-10-21T14:21:09.549Z,97599.69
2022-10-21T14:23:38.740Z,97599.94
2022-10-21T14:26:10.403Z,97609.47
2022-10-21T14:28:40.066Z,97599.94
2022-10-21T14:31:14.386Z,97609.47
2022-10-21T14:33:47.100Z,97597.50
2022-10-21T14:36:21.211Z,97590.63
2022-10-21T14:39:06.641Z,97586.63
2022-10-21T14:41:39.479Z,97597.19
2022-10-21T14:44:15.231Z,97595.03
2022-10-21T14:46:49.854Z,97603.78
2022-10-21T14:49:28.832Z,97604.22
2022-10-21T14:52:04.124Z,97610.81
2022-10-21T14:54:43.510Z,97603.13
2022-10-21T14:57:36.528Z,97609.19
2022-10-21T15:00:10.937Z,97606.81
2022-10-21T15:02:41.621Z,97600.97
2022-10-21T15:05:49.280Z,97599.59
2022-10-21T15:08:32.343Z,97599.38
2022-10-21T15:11:23.717Z,97606.50
2022-10-21T15:14:28.792Z,97605.16
2022-10-21T15:17:00.395Z,97600.66
2022-10-21T15:19:43.447Z,97603.53
2022-10-21T15:22:27.138Z,97601.38
2022-10-21T15:25:06.726Z,97615.63
2022-10-21T15:27:42.916Z,97607.94
2022-10-21T15:30:20.029Z,97601.59
2022-10-21T15:32:49.965Z,97603.44
2022-10-21T15:35:24.693Z,97607.94
2022-10-21T15:37:55.350Z,97607.38
2022-10-21T15:40:24.407Z,97607.38
2022-10-21T15:42:53.044Z,97602.34
2022-10-21T15:45:23.818Z,97606.81
2022-10-21T15:47:53.533Z,97603.59
2022-10-21T15:50:27.465Z,97612.59
2022-10-21T15:52:56.820Z,97617.63
2022-10-21T15:55:26.308Z,97615.47
2022-10-21T15:57:58.048Z,97616.50
2022-10-21T16:00:26.806Z,97609.03
2022-10-21T16:02:55.409Z,97612.97
2022-10-21T16:05:25.498Z,97619.56
2022-10-21T16:07:54.545Z,97630.59
2022-10-21T16:10:30.300Z,97628.19
2022-10-21T16:12:59.383Z,97623.38
2022-10-21T16:15:28.672Z,97633.38
2022-10-21T16:18:00.177Z,97622.78
2022-10-21T16:20:33.652Z,97616.16
2022-10-21T16:23:03.244Z,97616.41
2022-10-21T16:25:32.167Z,97623.53
2022-10-21T16:28:01.599Z,97624.56
2022-10-21T16:30:35.321Z,97632.72
2022-10-21T16:33:05.268Z,97629.84
2022-10-21T16:35:35.456Z,97634.81
2022-10-21T16:38:04.042Z,97636.88
2022-10-21T16:40:36.067Z,97647.69
2022-10-21T16:43:04.621Z,97650.00
2022-10-21T16:45:34.558Z,97658.38
2022-10-21T16:48:06.364Z,97644.97
2022-10-21T16:50:41.950Z,97645.66
2022-10-21T16:53:16.733Z,97641.66
2022-10-21T16:55:45.507Z,97633.97
2022-10-21T16:58:15.218Z,97650.75
2022-10-21T17:00:44.953Z,97650.16
2022-10-21T17:03:13.837Z,97651.22
2022-10-21T17:05:43.750Z,97668.56
2022-10-21T17:08:12.306Z,97662.22
2022-10-21T17:10:41.359Z,97666.50
2022-10-21T17:13:11.142Z,97659.28
2022-10-21T17:15:40.054Z,97666.88
2022-10-21T17:18:11.814Z,97670.50
2022-10-21T17:20:44.875Z,97684.19
2022-10-21T17:23:13.434Z,97688.88
2022-10-21T17:25:42.060Z,97686.72
2022-10-21T17:28:10.610Z,97688.78
2022-10-21T17:30:39.187Z,97691.91
2022-10-21T17:33:10.580Z,97689.47
2022-10-21T17:35:44.264Z,97687.06
2022-10-21T17:38:15.047Z,97681.91
2022-10-21T17:40:43.610Z,97691.69
2022-10-21T17:43:12.103Z,97688.47
2022-10-21T17:45:40.664Z,97688.38
2022-10-21T17:48:09.960Z,97687.56
2022-10-21T17:50:38.740Z,97679.31
2022-10-21T17:53:09.396Z,97684.13
2022-10-21T17:55:37.842Z,97680.88
2022-10-21T17:58:06.435Z,97689.88
2022-10-21T18:00:39.945Z,97692.97
2022-10-21T18:03:10.906Z,97690.53
2022-10-21T18:05:42.764Z,97684.72
2022-10-21T18:08:13.877Z,97687.56
2022-10-21T18:10:42.508Z,97679.09
2022-10-21T18:13:10.989Z,97687.56
2022-10-21T18:15:39.458Z,97676.88
2022-10-21T18:18:07.966Z,97684.25
2022-10-21T18:20:38.146Z,97680.81
2022-10-21T18:23:06.643Z,97685.25
2022-10-21T18:25:39.188Z,97680.47
2022-10-21T18:28:08.315Z,97686.53
2022-10-21T18:30:42.751Z,97686.53
2022-10-21T18:33:11.797Z,97681.50
2022-10-21T18:35:40.448Z,97687.34
2022-10-21T18:38:09.315Z,97684.50
2022-10-21T18:40:43.778Z,97675.78
2022-10-21T18:43:20.819Z,97682.06
2022-10-21T18:45:49.405Z,97676.78
2022-10-21T18:48:17.872Z,97668.88
2022-10-21T18:50:46.944Z,97658.34
2022-10-21T18:53:15.568Z,97664.16
2022-10-21T18:55:46.301Z,97673.34
2022-10-21T18:58:14.891Z,97676.78
2022-10-21T19:00:43.328Z,97690.53
2022-10-21T19:03:11.735Z,97696.28
2022-10-21T19:05:42.108Z,97703.97
2022-10-21T19:08:10.540Z,97707.19
2022-10-21T19:10:38.984Z,97697.91
2022-10-21T19:13:08.843Z,97707.63
2022-10-21T19:15:37.724Z,97712.91
2022-10-21T19:18:06.239Z,97711.09
2022-10-21T19:20:34.654Z,97704.78
2022-10-21T19:23:03.178Z,97710.06
2022-10-21T19:25:33.379Z,97710.88
2022-10-21T19:28:18.697Z,97699.72
2022-10-21T19:30:48.490Z,97692.63
2022-10-21T19:33:17.088Z,97694.69
2022-10-21T19:35:45.521Z,97689.41
2022-10-21T19:38:20.837Z,97685.16
2022-10-21T19:41:01.098Z,97692.28
2022-10-21T19:43:30.129Z,97686.19
2022-10-21T19:46:04.562Z,97691.00
2022-10-21T19:48:34.098Z,97694.44
2022-10-21T19:51:02.663Z,97701.09
2022-10-21T19:53:33.732Z,97697.91
2022-10-21T19:56:05.910Z,97710.28
2022-10-21T19:58:35.749Z,97708.44
2022-10-21T20:01:10.300Z,97700.06
2022-10-21T20:03:39.476Z,97709.81
2022-10-21T20:06:08.603Z,97715.09
2022-10-21T20:08:40.054Z,97717.50
2022-10-21T20:11:11.717Z,97719.34
2022-10-21T20:13:40.802Z,97730.69
2022-10-21T20:16:17.301Z,97727.25
2022-10-21T20:18:46.141Z,97741.25
2022-10-21T20:21:15.163Z,97743.88
2022-10-21T20:23:44.338Z,97754.44
2022-10-21T20:26:13.471Z,97754.44
2022-10-21T20:28:41.946Z,97762.34
2022-10-21T20:31:14.768Z,97763.94
2022-10-21T20:33:45.619Z,97770.28
2022-10-21T20:36:18.313Z,97772.09
2022-10-21T20:38:49.149Z,97767.38
2022-10-21T20:41:22.593Z,97746.53
2022-10-21T20:43:54.112Z,97735.97
2022-10-21T20:46:26.268Z,97732.75
2022-10-21T20:48:56.307Z,97723.47
2022-10-21T20:51:27.575Z,97732.19
2022-10-21T20:53:59.727Z,97724.72
2022-10-21T20:56:29.989Z,97722.66
2022-10-21T20:58:59.425Z,97727.94
2022-10-21T21:01:32.514Z,97722.19
2022-10-21T21:04:04.840Z,97716.91
2022-10-21T21:06:38.728Z,97720.63
2022-10-21T21:09:33.191Z,97720.63
2022-10-21T21:11:56.677Z,97722.44
2022-10-21T21:14:25.132Z,97728.53
2022-10-21T21:16:55.722Z,97726.91
2022-10-21T21:19:24.315Z,97719.81
2022-10-21T21:21:53.299Z,97716.81
2022-10-21T21:24:21.844Z,97725.75
2022-10-21T21:26:50.376Z,97727.59
2022-10-21T21:29:19.306Z,97726.78
2022-10-21T21:31:47.872Z,97723.13
2022-10-21T21:34:20.710Z,97718.31
2022-10-21T21:36:49.409Z,97725.66
2022-10-21T21:39:17.826Z,97729.31
2022-10-21T21:41:46.519Z,97721.63
2022-10-21T21:44:15.556Z,97724.50
2022-10-21T21:46:44.038Z,97723.91
2022-10-21T21:49:12.530Z,97721.72
2022-10-21T21:51:42.473Z,97720.94
2022-10-21T21:54:10.897Z,97724.63
2022-10-21T21:56:39.340Z,97727.47
2022-10-21T21:59:08.421Z,97738.00
2022-10-21T22:01:37.538Z,97729.09
2022-10-21T22:04:06.107Z,97729.09
2022-10-21T22:06:39.067Z,97729.28
2022-10-21T22:09:11.802Z,97731.72
2022-10-21T22:11:40.839Z,97723.81
2022-10-21T22:14:09.386Z,97735.94
2022-10-21T22:16:38.058Z,97734.34
2022-10-21T22:19:06.666Z,97735.16
2022-10-21T22:21:35.154Z,97733.56
2022-10-21T22:24:04.227Z,97729.88
2022-10-21T22:26:34.058Z,97733.75
2022-10-21T22:29:02.576Z,97724.03
2022-10-21T22:31:31.201Z,97710.03
2022-10-21T22:34:02.811Z,97704.53
2022-10-21T22:36:33.524Z,97708.00
2022-10-21T22:39:03.554Z,97712.47
2022-10-21T22:41:33.410Z,97716.91
2022-10-21T22:44:01.907Z,97724.03
2022-10-21T22:46:34.619Z,97713.47
2022-10-21T22:49:05.116Z,97715.31
2022-10-21T22:51:34.338Z,97710.03
2022-10-21T22:54:02.805Z,97711.66
2022-10-21T22:56:32.111Z,97725.28
2022-10-21T22:59:01.988Z,97717.13
2022-10-21T23:01:31.640Z,97723.47
2022-10-21T23:04:02.843Z,97734.47
2022-10-21T23:06:31.563Z,97736.06
2022-10-21T23:09:00.663Z,97716.81
2022-10-21T23:11:30.067Z,97745.81
2022-10-21T23:14:03.368Z,97768.16
2022-10-21T23:16:38.685Z,97776.06
2022-10-21T23:19:08.844Z,97785.59
2022-10-21T23:21:38.337Z,97785.59
2022-10-21T23:24:07.959Z,97793.69
2022-10-21T23:26:36.809Z,97790.03
2022-10-21T23:29:05.980Z,97790.03
2022-10-21T23:31:34.648Z,97802.22
2022-10-21T23:34:06.043Z,97809.88
2022-10-21T23:36:36.377Z,97804.03
2022-10-21T23:39:05.749Z,97805.41
2022-10-21T23:41:34.374Z,97798.31
2022-10-21T23:44:02.805Z,97804.59
2022-10-21T23:46:31.399Z,97802.78
2022-10-21T23:48:59.855Z,97793.28
2022-10-21T23:51:29.667Z,97789.59
2022-10-21T23:53:58.148Z,97783.75
2022-10-21T23:56:26.747Z,97787.19
2022-10-21T23:58:55.669Z,97770.56
